sensor_id;sensor_type;location;lat;lon;timestamp;P1;durP1;ratioP1;P2;durP2;ratioP2
12814;SDS011;6472;52.328;13.070;2022-07-06T00:02:18;0.80;;;0.80;;
12814;SDS011;6472;52.328;13.070;2022-07-06T00:04:47;3.23;;;0.90;;
12814;SDS011;6472;52.328;13.070;2022-07-06T00:07:16;0.60;;;0.60;;
12814;SDS011;6472;52.328;13.070;2022-07-06T00:09:46;2.30;;;0.80;;
12814;SDS011;6472;52.328;13.070;2022-07-06T00:12:14;0.83;;;0.67;;
12814;SDS011;6472;52.328;13.070;2022-07-06T00:14:43;1.10;;;0.65;;
12814;SDS011;6472;52.328;13.070;2022-07-06T00:17:11;2.10;;;0.83;;
12814;SDS011;6472;52.328;13.070;2022-07-06T00:19:40;0.60;;;0.60;;
12814;SDS011;6472;52.328;13.070;2022-07-06T00:22:08;1.63;;;0.80;;
12814;SDS011;6472;52.328;13.070;2022-07-06T00:24:37;1.70;;;0.77;;
12814;SDS011;6472;52.328;13.070;2022-07-06T00:27:07;0.70;;;0.70;;
12814;SDS011;6472;52.328;13.070;2022-07-06T00:29:35;0.63;;;0.63;;
12814;SDS011;6472;52.328;13.070;2022-07-06T00:32:04;3.37;;;0.93;;
12814;SDS011;6472;52.328;13.070;2022-07-06T00:34:32;2.67;;;1.10;;
12814;SDS011;6472;52.328;13.070;2022-07-06T00:37:01;0.77;;;0.77;;
12814;SDS011;6472;52.328;13.070;2022-07-06T00:39:30;0.93;;;0.70;;
12814;SDS011;6472;52.328;13.070;2022-07-06T00:41:58;1.03;;;1.00;;
12814;SDS011;6472;52.328;13.070;2022-07-06T00:44:28;0.80;;;0.73;;
12814;SDS011;6472;52.328;13.070;2022-07-06T00:46:59;0.73;;;0.73;;
12814;SDS011;6472;52.328;13.070;2022-07-06T00:49:28;6.23;;;1.37;;
12814;SDS011;6472;52.328;13.070;2022-07-06T00:52:14;1.27;;;1.00;;
12814;SDS011;6472;52.328;13.070;2022-07-06T00:54:42;1.37;;;0.80;;
12814;SDS011;6472;52.328;13.070;2022-07-06T00:57:13;1.70;;;0.97;;
12814;SDS011;6472;52.328;13.070;2022-07-06T00:59:43;1.83;;;0.73;;
12814;SDS011;6472;52.328;13.070;2022-07-06T01:02:12;1.20;;;0.87;;
12814;SDS011;6472;52.328;13.070;2022-07-06T01:04:41;1.07;;;0.90;;
12814;SDS011;6472;52.328;13.070;2022-07-06T01:07:09;1.00;;;1.00;;
12814;SDS011;6472;52.328;13.070;2022-07-06T01:09:38;2.00;;;0.90;;
12814;SDS011;6472;52.328;13.070;2022-07-06T01:12:07;0.70;;;0.70;;
12814;SDS011;6472;52.328;13.070;2022-07-06T01:14:35;1.27;;;0.80;;
12814;SDS011;6472;52.328;13.070;2022-07-06T01:17:06;0.80;;;0.80;;
12814;SDS011;6472;52.328;13.070;2022-07-06T01:19:35;0.80;;;0.80;;
12814;SDS011;6472;52.328;13.070;2022-07-06T01:22:05;1.00;;;1.00;;
12814;SDS011;6472;52.328;13.070;2022-07-06T01:24:34;0.80;;;0.80;;
12814;SDS011;6472;52.328;13.070;2022-07-06T01:27:03;0.80;;;0.80;;
12814;SDS011;6472;52.328;13.070;2022-07-06T01:29:32;1.03;;;1.00;;
12814;SDS011;6472;52.328;13.070;2022-07-06T01:32:01;0.97;;;0.80;;
12814;SDS011;6472;52.328;13.070;2022-07-06T01:34:30;0.70;;;0.70;;
12814;SDS011;6472;52.328;13.070;2022-07-06T01:36:58;0.97;;;0.97;;
12814;SDS011;6472;52.328;13.070;2022-07-06T01:39:28;0.80;;;0.80;;
12814;SDS011;6472;52.328;13.070;2022-07-06T01:41:57;1.53;;;1.43;;
12814;SDS011;6472;52.328;13.070;2022-07-06T01:44:25;1.20;;;1.10;;
12814;SDS011;6472;52.328;13.070;2022-07-06T01:46:54;0.80;;;0.80;;
12814;SDS011;6472;52.328;13.070;2022-07-06T01:49:22;1.93;;;1.03;;
12814;SDS011;6472;52.328;13.070;2022-07-06T01:51:51;1.23;;;0.90;;
12814;SDS011;6472;52.328;13.070;2022-07-06T01:54:19;1.17;;;0.73;;
12814;SDS011;6472;52.328;13.070;2022-07-06T01:56:49;0.73;;;0.73;;
12814;SDS011;6472;52.328;13.070;2022-07-06T01:59:17;0.73;;;0.73;;
12814;SDS011;6472;52.328;13.070;2022-07-06T02:01:46;0.83;;;0.83;;
12814;SDS011;6472;52.328;13.070;2022-07-06T02:04:14;0.90;;;0.90;;
12814;SDS011;6472;52.328;13.070;2022-07-06T02:06:43;0.97;;;0.97;;
12814;SDS011;6472;52.328;13.070;2022-07-06T02:09:11;3.77;;;1.30;;
12814;SDS011;6472;52.328;13.070;2022-07-06T02:11:40;1.37;;;0.87;;
12814;SDS011;6472;52.328;13.070;2022-07-06T02:14:09;0.80;;;0.80;;
12814;SDS011;6472;52.328;13.070;2022-07-06T02:16:38;0.50;;;0.40;;
12814;SDS011;6472;52.328;13.070;2022-07-06T02:19:06;0.83;;;0.83;;
12814;SDS011;6472;52.328;13.070;2022-07-06T02:21:35;0.80;;;0.80;;
12814;SDS011;6472;52.328;13.070;2022-07-06T02:24:04;1.00;;;1.00;;
12814;SDS011;6472;52.328;13.070;2022-07-06T02:26:32;3.33;;;1.00;;
12814;SDS011;6472;52.328;13.070;2022-07-06T02:29:00;2.73;;;1.10;;
12814;SDS011;6472;52.328;13.070;2022-07-06T02:31:30;1.87;;;1.40;;
12814;SDS011;6472;52.328;13.070;2022-07-06T02:33:59;1.10;;;1.10;;
12814;SDS011;6472;52.328;13.070;2022-07-06T02:36:28;2.47;;;1.00;;
12814;SDS011;6472;52.328;13.070;2022-07-06T02:38:56;1.37;;;1.27;;
12814;SDS011;6472;52.328;13.070;2022-07-06T02:41:24;3.03;;;1.10;;
12814;SDS011;6472;52.328;13.070;2022-07-06T02:43:53;2.00;;;1.00;;
12814;SDS011;6472;52.328;13.070;2022-07-06T02:46:21;1.13;;;1.10;;
12814;SDS011;6472;52.328;13.070;2022-07-06T02:48:51;5.00;;;1.50;;
12814;SDS011;6472;52.328;13.070;2022-07-06T02:51:20;1.00;;;1.00;;
12814;SDS011;6472;52.328;13.070;2022-07-06T02:53:50;1.20;;;1.10;;
12814;SDS011;6472;52.328;13.070;2022-07-06T02:56:18;1.77;;;1.20;;
12814;SDS011;6472;52.328;13.070;2022-07-06T02:58:47;1.87;;;1.47;;
12814;SDS011;6472;52.328;13.070;2022-07-06T03:01:15;1.37;;;1.20;;
12814;SDS011;6472;52.328;13.070;2022-07-06T03:03:44;1.50;;;1.40;;
12814;SDS011;6472;52.328;13.070;2022-07-06T03:06:14;1.70;;;1.20;;
12814;SDS011;6472;52.328;13.070;2022-07-06T03:08:42;1.00;;;1.00;;
12814;SDS011;6472;52.328;13.070;2022-07-06T03:11:11;1.47;;;1.37;;
12814;SDS011;6472;52.328;13.070;2022-07-06T03:13:39;1.00;;;1.00;;
12814;SDS011;6472;52.328;13.070;2022-07-06T03:16:08;1.93;;;1.30;;
12814;SDS011;6472;52.328;13.070;2022-07-06T03:18:36;3.83;;;1.20;;
12814;SDS011;6472;52.328;13.070;2022-07-06T03:21:05;1.10;;;1.10;;
12814;SDS011;6472;52.328;13.070;2022-07-06T03:23:35;1.20;;;1.20;;
12814;SDS011;6472;52.328;13.070;2022-07-06T03:26:03;1.20;;;1.10;;
12814;SDS011;6472;52.328;13.070;2022-07-06T03:28:32;1.73;;;1.20;;
12814;SDS011;6472;52.328;13.070;2022-07-06T03:31:00;1.43;;;1.33;;
12814;SDS011;6472;52.328;13.070;2022-07-06T03:33:29;3.23;;;1.40;;
12814;SDS011;6472;52.328;13.070;2022-07-06T03:35:57;1.50;;;1.40;;
12814;SDS011;6472;52.328;13.070;2022-07-06T03:38:26;4.63;;;2.17;;
12814;SDS011;6472;52.328;13.070;2022-07-06T03:40:56;2.20;;;1.80;;
12814;SDS011;6472;52.328;13.070;2022-07-06T03:43:24;1.40;;;1.30;;
12814;SDS011;6472;52.328;13.070;2022-07-06T03:45:52;2.20;;;1.60;;
12814;SDS011;6472;52.328;13.070;2022-07-06T03:48:21;1.30;;;1.20;;
12814;SDS011;6472;52.328;13.070;2022-07-06T03:50:50;2.67;;;1.53;;
12814;SDS011;6472;52.328;13.070;2022-07-06T03:53:19;1.37;;;1.27;;
12814;SDS011;6472;52.328;13.070;2022-07-06T03:55:47;3.43;;;1.77;;
12814;SDS011;6472;52.328;13.070;2022-07-06T03:58:31;2.50;;;1.37;;
12814;SDS011;6472;52.328;13.070;2022-07-06T04:01:00;2.30;;;1.77;;
12814;SDS011;6472;52.328;13.070;2022-07-06T04:03:28;1.47;;;1.37;;
12814;SDS011;6472;52.328;13.070;2022-07-06T04:05:59;1.50;;;1.40;;
12814;SDS011;6472;52.328;13.070;2022-07-06T04:08:28;1.60;;;1.50;;
12814;SDS011;6472;52.328;13.070;2022-07-06T04:10:56;3.13;;;1.33;;
12814;SDS011;6472;52.328;13.070;2022-07-06T04:13:24;5.20;;;1.50;;
12814;SDS011;6472;52.328;13.070;2022-07-06T04:15:54;3.60;;;1.70;;
12814;SDS011;6472;52.328;13.070;2022-07-06T04:18:23;2.60;;;1.60;;
12814;SDS011;6472;52.328;13.070;2022-07-06T04:20:53;2.57;;;1.30;;
12814;SDS011;6472;52.328;13.070;2022-07-06T04:23:23;3.10;;;1.70;;
12814;SDS011;6472;52.328;13.070;2022-07-06T04:25:52;2.40;;;1.20;;
12814;SDS011;6472;52.328;13.070;2022-07-06T04:28:21;2.73;;;1.13;;
12814;SDS011;6472;52.328;13.070;2022-07-06T04:30:50;3.63;;;1.27;;
12814;SDS011;6472;52.328;13.070;2022-07-06T04:33:20;1.27;;;1.00;;
12814;SDS011;6472;52.328;13.070;2022-07-06T04:35:49;1.00;;;1.00;;
12814;SDS011;6472;52.328;13.070;2022-07-06T04:38:17;1.53;;;1.30;;
12814;SDS011;6472;52.328;13.070;2022-07-06T04:40:46;0.97;;;0.97;;
12814;SDS011;6472;52.328;13.070;2022-07-06T04:43:15;2.27;;;1.10;;
12814;SDS011;6472;52.328;13.070;2022-07-06T04:45:43;1.63;;;1.03;;
12814;SDS011;6472;52.328;13.070;2022-07-06T04:48:11;3.53;;;1.23;;
12814;SDS011;6472;52.328;13.070;2022-07-06T04:50:41;1.37;;;1.00;;
12814;SDS011;6472;52.328;13.070;2022-07-06T04:53:10;3.47;;;1.17;;
12814;SDS011;6472;52.328;13.070;2022-07-06T04:55:38;4.03;;;1.37;;
12814;SDS011;6472;52.328;13.070;2022-07-06T04:58:07;1.27;;;1.17;;
12814;SDS011;6472;52.328;13.070;2022-07-06T05:00:35;0.90;;;0.90;;
12814;SDS011;6472;52.328;13.070;2022-07-06T05:03:04;1.20;;;1.10;;
12814;SDS011;6472;52.328;13.070;2022-07-06T05:05:32;0.87;;;0.87;;
12814;SDS011;6472;52.328;13.070;2022-07-06T05:08:02;2.00;;;1.30;;
12814;SDS011;6472;52.328;13.070;2022-07-06T05:10:31;1.30;;;0.90;;
12814;SDS011;6472;52.328;13.070;2022-07-06T05:12:59;1.17;;;1.17;;
12814;SDS011;6472;52.328;13.070;2022-07-06T05:15:28;2.33;;;0.80;;
12814;SDS011;6472;52.328;13.070;2022-07-06T05:17:57;2.10;;;1.20;;
12814;SDS011;6472;52.328;13.070;2022-07-06T05:20:25;3.47;;;1.20;;
12814;SDS011;6472;52.328;13.070;2022-07-06T05:22:54;2.40;;;1.10;;
12814;SDS011;6472;52.328;13.070;2022-07-06T05:25:24;1.93;;;0.80;;
12814;SDS011;6472;52.328;13.070;2022-07-06T05:27:52;1.52;;;1.13;;
12814;SDS011;6472;52.328;13.070;2022-07-06T05:30:21;3.67;;;1.23;;
12814;SDS011;6472;52.328;13.070;2022-07-06T05:32:49;2.40;;;1.13;;
12814;SDS011;6472;52.328;13.070;2022-07-06T05:35:18;1.73;;;0.70;;
12814;SDS011;6472;52.328;13.070;2022-07-06T05:38:06;1.67;;;1.13;;
12814;SDS011;6472;52.328;13.070;2022-07-06T05:40:36;3.78;;;0.88;;
12814;SDS011;6472;52.328;13.070;2022-07-06T05:43:05;1.57;;;0.80;;
12814;SDS011;6472;52.328;13.070;2022-07-06T05:45:33;1.33;;;0.93;;
12814;SDS011;6472;52.328;13.070;2022-07-06T05:48:02;3.20;;;1.02;;
12814;SDS011;6472;52.328;13.070;2022-07-06T05:50:45;1.45;;;1.00;;
12814;SDS011;6472;52.328;13.070;2022-07-06T05:53:13;2.25;;;1.00;;
12814;SDS011;6472;52.328;13.070;2022-07-06T05:55:47;0.88;;;0.88;;
12814;SDS011;6472;52.328;13.070;2022-07-06T05:58:16;2.33;;;0.80;;
12814;SDS011;6472;52.328;13.070;2022-07-06T06:00:44;1.73;;;0.80;;
12814;SDS011;6472;52.328;13.070;2022-07-06T06:03:13;2.25;;;0.90;;
12814;SDS011;6472;52.328;13.070;2022-07-06T06:05:41;4.85;;;1.00;;
12814;SDS011;6472;52.328;13.070;2022-07-06T06:08:10;1.85;;;0.80;;
12814;SDS011;6472;52.328;13.070;2022-07-06T06:10:38;3.03;;;0.82;;
12814;SDS011;6472;52.328;13.070;2022-07-06T06:13:08;1.20;;;1.05;;
12814;SDS011;6472;52.328;13.070;2022-07-06T06:15:37;0.70;;;0.70;;
12814;SDS011;6472;52.328;13.070;2022-07-06T06:18:05;2.97;;;0.90;;
12814;SDS011;6472;52.328;13.070;2022-07-06T06:20:34;2.42;;;0.90;;
12814;SDS011;6472;52.328;13.070;2022-07-06T06:23:02;1.90;;;0.77;;
12814;SDS011;6472;52.328;13.070;2022-07-06T06:25:32;1.38;;;1.13;;
12814;SDS011;6472;52.328;13.070;2022-07-06T06:28:02;1.20;;;0.80;;
12814;SDS011;6472;52.328;13.070;2022-07-06T06:30:33;1.95;;;1.00;;
12814;SDS011;6472;52.328;13.070;2022-07-06T06:33:06;1.88;;;1.05;;
12814;SDS011;6472;52.328;13.070;2022-07-06T06:35:35;3.03;;;0.80;;
12814;SDS011;6472;52.328;13.070;2022-07-06T06:38:04;4.03;;;0.90;;
12814;SDS011;6472;52.328;13.070;2022-07-06T06:40:32;0.65;;;0.65;;
12814;SDS011;6472;52.328;13.070;2022-07-06T06:43:01;1.45;;;0.80;;
12814;SDS011;6472;52.328;13.070;2022-07-06T06:45:29;1.15;;;0.90;;
12814;SDS011;6472;52.328;13.070;2022-07-06T06:48:00;0.68;;;0.68;;
12814;SDS011;6472;52.328;13.070;2022-07-06T06:50:28;0.70;;;0.70;;
12814;SDS011;6472;52.328;13.070;2022-07-06T06:52:57;2.05;;;0.80;;
12814;SDS011;6472;52.328;13.070;2022-07-06T06:55:25;1.90;;;0.82;;
12814;SDS011;6472;52.328;13.070;2022-07-06T06:57:54;1.70;;;1.10;;
12814;SDS011;6472;52.328;13.070;2022-07-06T07:00:23;1.48;;;0.60;;
12814;SDS011;6472;52.328;13.070;2022-07-06T07:02:51;2.50;;;1.00;;
12814;SDS011;6472;52.328;13.070;2022-07-06T07:05:21;1.65;;;0.90;;
12814;SDS011;6472;52.328;13.070;2022-07-06T07:07:50;4.32;;;0.73;;
12814;SDS011;6472;52.328;13.070;2022-07-06T07:10:18;1.65;;;0.80;;
12814;SDS011;6472;52.328;13.070;2022-07-06T07:12:47;2.05;;;0.80;;
12814;SDS011;6472;52.328;13.070;2022-07-06T07:15:16;1.65;;;0.77;;
12814;SDS011;6472;52.328;13.070;2022-07-06T07:17:45;0.70;;;0.60;;
12814;SDS011;6472;52.328;13.070;2022-07-06T07:20:13;0.85;;;0.77;;
12814;SDS011;6472;52.328;13.070;2022-07-06T07:22:43;1.63;;;0.68;;
12814;SDS011;6472;52.328;13.070;2022-07-06T07:25:11;1.38;;;0.55;;
12814;SDS011;6472;52.328;13.070;2022-07-06T07:27:40;1.17;;;0.60;;
12814;SDS011;6472;52.328;13.070;2022-07-06T07:30:09;3.15;;;1.02;;
12814;SDS011;6472;52.328;13.070;2022-07-06T07:32:38;2.97;;;1.10;;
12814;SDS011;6472;52.328;13.070;2022-07-06T07:35:07;2.13;;;0.85;;
12814;SDS011;6472;52.328;13.070;2022-07-06T07:37:36;2.40;;;1.27;;
12814;SDS011;6472;52.328;13.070;2022-07-06T07:40:06;2.40;;;0.98;;
12814;SDS011;6472;52.328;13.070;2022-07-06T07:42:36;0.85;;;0.85;;
12814;SDS011;6472;52.328;13.070;2022-07-06T07:45:07;8.68;;;1.42;;
12814;SDS011;6472;52.328;13.070;2022-07-06T07:47:36;1.13;;;0.70;;
12814;SDS011;6472;52.328;13.070;2022-07-06T07:50:05;2.22;;;1.00;;
12814;SDS011;6472;52.328;13.070;2022-07-06T07:52:34;4.53;;;1.27;;
12814;SDS011;6472;52.328;13.070;2022-07-06T07:55:03;1.38;;;0.80;;
12814;SDS011;6472;52.328;13.070;2022-07-06T07:57:53;0.73;;;0.63;;
12814;SDS011;6472;52.328;13.070;2022-07-06T08:00:22;2.42;;;1.10;;
12814;SDS011;6472;52.328;13.070;2022-07-06T08:02:53;2.85;;;0.90;;
12814;SDS011;6472;52.328;13.070;2022-07-06T08:05:22;2.05;;;0.77;;
12814;SDS011;6472;52.328;13.070;2022-07-06T08:07:51;3.13;;;0.93;;
12814;SDS011;6472;52.328;13.070;2022-07-06T08:10:19;2.50;;;0.63;;
12814;SDS011;6472;52.328;13.070;2022-07-06T08:12:48;0.82;;;0.70;;
12814;SDS011;6472;52.328;13.070;2022-07-06T08:15:19;2.10;;;0.70;;
12814;SDS011;6472;52.328;13.070;2022-07-06T08:17:47;1.27;;;0.70;;
12814;SDS011;6472;52.328;13.070;2022-07-06T08:20:16;0.77;;;0.52;;
12814;SDS011;6472;52.328;13.070;2022-07-06T08:22:44;3.00;;;0.57;;
12814;SDS011;6472;52.328;13.070;2022-07-06T08:25:13;0.77;;;0.70;;
12814;SDS011;6472;52.328;13.070;2022-07-06T08:27:41;1.52;;;0.52;;
12814;SDS011;6472;52.328;13.070;2022-07-06T08:30:10;1.23;;;0.60;;
12814;SDS011;6472;52.328;13.070;2022-07-06T08:32:41;1.05;;;0.98;;
12814;SDS011;6472;52.328;13.070;2022-07-06T08:35:30;0.63;;;0.60;;
12814;SDS011;6472;52.328;13.070;2022-07-06T08:37:59;3.67;;;0.90;;
12814;SDS011;6472;52.328;13.070;2022-07-06T08:40:29;1.83;;;0.65;;
12814;SDS011;6472;52.328;13.070;2022-07-06T08:43:01;2.45;;;0.60;;
12814;SDS011;6472;52.328;13.070;2022-07-06T08:45:29;0.80;;;0.60;;
12814;SDS011;6472;52.328;13.070;2022-07-06T08:48:05;1.00;;;0.60;;
12814;SDS011;6472;52.328;13.070;2022-07-06T08:50:34;2.55;;;0.60;;
12814;SDS011;6472;52.328;13.070;2022-07-06T08:53:03;1.63;;;0.50;;
12814;SDS011;6472;52.328;13.070;2022-07-06T08:55:31;0.68;;;0.52;;
12814;SDS011;6472;52.328;13.070;2022-07-06T08:58:00;2.55;;;0.80;;
12814;SDS011;6472;52.328;13.070;2022-07-06T09:00:31;0.55;;;0.55;;
12814;SDS011;6472;52.328;13.070;2022-07-06T09:03:00;1.25;;;0.60;;
12814;SDS011;6472;52.328;13.070;2022-07-06T09:05:31;1.42;;;0.98;;
12814;SDS011;6472;52.328;13.070;2022-07-06T09:08:02;1.77;;;0.60;;
12814;SDS011;6472;52.328;13.070;2022-07-06T09:10:30;0.80;;;0.68;;
12814;SDS011;6472;52.328;13.070;2022-07-06T09:13:02;3.22;;;0.70;;
12814;SDS011;6472;52.328;13.070;2022-07-06T09:15:32;1.38;;;0.68;;
12814;SDS011;6472;52.328;13.070;2022-07-06T09:18:01;0.68;;;0.68;;
12814;SDS011;6472;52.328;13.070;2022-07-06T09:20:33;2.42;;;0.68;;
12814;SDS011;6472;52.328;13.070;2022-07-06T09:23:03;1.23;;;0.57;;
12814;SDS011;6472;52.328;13.070;2022-07-06T09:25:41;0.57;;;0.57;;
12814;SDS011;6472;52.328;13.070;2022-07-06T09:28:14;2.55;;;1.17;;
12814;SDS011;6472;52.328;13.070;2022-07-06T09:30:43;2.15;;;0.57;;
12814;SDS011;6472;52.328;13.070;2022-07-06T09:33:12;1.48;;;0.35;;
12814;SDS011;6472;52.328;13.070;2022-07-06T09:35:47;1.50;;;0.63;;
12814;SDS011;6472;52.328;13.070;2022-07-06T09:38:15;1.67;;;0.60;;
12814;SDS011;6472;52.328;13.070;2022-07-06T09:40:44;1.17;;;0.60;;
12814;SDS011;6472;52.328;13.070;2022-07-06T09:43:14;0.30;;;0.30;;
12814;SDS011;6472;52.328;13.070;2022-07-06T09:45:44;0.47;;;0.40;;
12814;SDS011;6472;52.328;13.070;2022-07-06T09:48:14;1.30;;;0.50;;
12814;SDS011;6472;52.328;13.070;2022-07-06T09:50:47;1.30;;;0.47;;
12814;SDS011;6472;52.328;13.070;2022-07-06T09:53:17;0.98;;;0.82;;
12814;SDS011;6472;52.328;13.070;2022-07-06T09:55:47;0.85;;;0.35;;
12814;SDS011;6472;52.328;13.070;2022-07-06T09:58:17;0.40;;;0.40;;
12814;SDS011;6472;52.328;13.070;2022-07-06T10:01:06;1.17;;;0.50;;
12814;SDS011;6472;52.328;13.070;2022-07-06T10:03:37;0.40;;;0.40;;
12814;SDS011;6472;52.328;13.070;2022-07-06T10:06:07;3.38;;;0.52;;
12814;SDS011;6472;52.328;13.070;2022-07-06T10:08:36;0.50;;;0.50;;
12814;SDS011;6472;52.328;13.070;2022-07-06T10:11:06;2.25;;;0.50;;
12814;SDS011;6472;52.328;13.070;2022-07-06T10:13:39;0.40;;;0.40;;
12814;SDS011;6472;52.328;13.070;2022-07-06T10:16:10;0.30;;;0.30;;
12814;SDS011;6472;52.328;13.070;2022-07-06T10:18:39;2.35;;;0.50;;
12814;SDS011;6472;52.328;13.070;2022-07-06T10:21:10;1.70;;;0.90;;
12814;SDS011;6472;52.328;13.070;2022-07-06T10:23:38;2.17;;;0.70;;
12814;SDS011;6472;52.328;13.070;2022-07-06T10:26:08;1.08;;;0.50;;
12814;SDS011;6472;52.328;13.070;2022-07-06T10:28:39;2.17;;;0.57;;
12814;SDS011;6472;52.328;13.070;2022-07-06T10:31:09;0.65;;;0.57;;
12814;SDS011;6472;52.328;13.070;2022-07-06T10:33:38;1.55;;;0.55;;
12814;SDS011;6472;52.328;13.070;2022-07-06T10:36:09;0.63;;;0.40;;
12814;SDS011;6472;52.328;13.070;2022-07-06T10:38:39;1.05;;;0.60;;
12814;SDS011;6472;52.328;13.070;2022-07-06T10:41:08;2.38;;;0.73;;
12814;SDS011;6472;52.328;13.070;2022-07-06T10:43:36;0.35;;;0.30;;
12814;SDS011;6472;52.328;13.070;2022-07-06T10:46:07;0.60;;;0.60;;
12814;SDS011;6472;52.328;13.070;2022-07-06T10:48:37;0.30;;;0.30;;
12814;SDS011;6472;52.328;13.070;2022-07-06T10:51:06;0.43;;;0.40;;
12814;SDS011;6472;52.328;13.070;2022-07-06T10:53:37;1.77;;;0.90;;
12814;SDS011;6472;52.328;13.070;2022-07-06T10:56:07;0.95;;;0.50;;
12814;SDS011;6472;52.328;13.070;2022-07-06T10:58:38;2.05;;;0.60;;
12814;SDS011;6472;52.328;13.070;2022-07-06T11:01:18;2.88;;;0.77;;
12814;SDS011;6472;52.328;13.070;2022-07-06T11:03:48;0.63;;;0.63;;
12814;SDS011;6472;52.328;13.070;2022-07-06T11:06:18;3.28;;;0.70;;
12814;SDS011;6472;52.328;13.070;2022-07-06T11:08:53;1.85;;;0.60;;
12814;SDS011;6472;52.328;13.070;2022-07-06T11:11:23;1.88;;;0.90;;
12814;SDS011;6472;52.328;13.070;2022-07-06T11:13:54;0.73;;;0.60;;
12814;SDS011;6472;52.328;13.070;2022-07-06T11:16:28;2.55;;;0.50;;
12814;SDS011;6472;52.328;13.070;2022-07-06T11:19:05;0.90;;;0.55;;
12814;SDS011;6472;52.328;13.070;2022-07-06T11:21:37;0.93;;;0.50;;
12814;SDS011;6472;52.328;13.070;2022-07-06T11:24:09;2.65;;;0.30;;
12814;SDS011;6472;52.328;13.070;2022-07-06T11:26:38;0.40;;;0.40;;
12814;SDS011;6472;52.328;13.070;2022-07-06T11:29:07;0.73;;;0.73;;
12814;SDS011;6472;52.328;13.070;2022-07-06T11:31:38;1.23;;;0.30;;
12814;SDS011;6472;52.328;13.070;2022-07-06T11:34:09;1.95;;;0.50;;
12814;SDS011;6472;52.328;13.070;2022-07-06T11:36:39;0.43;;;0.40;;
12814;SDS011;6472;52.328;13.070;2022-07-06T11:39:13;0.85;;;0.40;;
12814;SDS011;6472;52.328;13.070;2022-07-06T11:41:42;1.30;;;0.40;;
12814;SDS011;6472;52.328;13.070;2022-07-06T11:44:17;1.00;;;1.00;;
12814;SDS011;6472;52.328;13.070;2022-07-06T11:46:46;0.40;;;0.40;;
12814;SDS011;6472;52.328;13.070;2022-07-06T11:49:15;0.38;;;0.30;;
12814;SDS011;6472;52.328;13.070;2022-07-06T11:51:44;1.88;;;0.47;;
12814;SDS011;6472;52.328;13.070;2022-07-06T11:54:16;0.98;;;0.40;;
12814;SDS011;6472;52.328;13.070;2022-07-06T11:56:46;1.85;;;0.30;;
12814;SDS011;6472;52.328;13.070;2022-07-06T11:59:16;0.63;;;0.40;;
12814;SDS011;6472;52.328;13.070;2022-07-06T12:01:47;0.88;;;0.70;;
12814;SDS011;6472;52.328;13.070;2022-07-06T12:04:16;1.55;;;0.50;;
12814;SDS011;6472;52.328;13.070;2022-07-06T12:06:45;0.28;;;0.28;;
12814;SDS011;6472;52.328;13.070;2022-07-06T12:09:15;0.63;;;0.30;;
12814;SDS011;6472;52.328;13.070;2022-07-06T12:11:44;1.42;;;0.45;;
12814;SDS011;6472;52.328;13.070;2022-07-06T12:14:14;0.50;;;0.50;;
12814;SDS011;6472;52.328;13.070;2022-07-06T12:16:45;0.30;;;0.20;;
12814;SDS011;6472;52.328;13.070;2022-07-06T12:19:14;0.32;;;0.30;;
12814;SDS011;6472;52.328;13.070;2022-07-06T12:21:44;0.40;;;0.40;;
12814;SDS011;6472;52.328;13.070;2022-07-06T12:24:19;0.38;;;0.32;;
12814;SDS011;6472;52.328;13.070;2022-07-06T12:26:50;0.98;;;0.30;;
12814;SDS011;6472;52.328;13.070;2022-07-06T12:29:20;0.93;;;0.40;;
12814;SDS011;6472;52.328;13.070;2022-07-06T12:31:50;0.45;;;0.30;;
12814;SDS011;6472;52.328;13.070;2022-07-06T12:34:20;1.83;;;0.50;;
12814;SDS011;6472;52.328;13.070;2022-07-06T12:36:50;0.85;;;0.30;;
12814;SDS011;6472;52.328;13.070;2022-07-06T12:39:21;0.30;;;0.30;;
12814;SDS011;6472;52.328;13.070;2022-07-06T12:41:51;0.30;;;0.30;;
12814;SDS011;6472;52.328;13.070;2022-07-06T12:44:21;0.30;;;0.30;;
12814;SDS011;6472;52.328;13.070;2022-07-06T12:47:00;2.53;;;0.35;;
12814;SDS011;6472;52.328;13.070;2022-07-06T12:49:31;1.20;;;0.60;;
12814;SDS011;6472;52.328;13.070;2022-07-06T12:52:00;1.02;;;0.35;;
12814;SDS011;6472;52.328;13.070;2022-07-06T12:54:32;0.30;;;0.30;;
12814;SDS011;6472;52.328;13.070;2022-07-06T12:59:41;0.35;;;0.20;;
12814;SDS011;6472;52.328;13.070;2022-07-06T13:02:18;0.52;;;0.40;;
12814;SDS011;6472;52.328;13.070;2022-07-06T13:05:10;0.93;;;0.40;;
12814;SDS011;6472;52.328;13.070;2022-07-06T13:07:43;1.77;;;0.70;;
12814;SDS011;6472;52.328;13.070;2022-07-06T13:10:15;1.33;;;0.40;;
12814;SDS011;6472;52.328;13.070;2022-07-06T13:12:44;0.93;;;0.50;;
12814;SDS011;6472;52.328;13.070;2022-07-06T13:15:13;1.33;;;0.30;;
12814;SDS011;6472;52.328;13.070;2022-07-06T13:17:42;0.32;;;0.32;;
12814;SDS011;6472;52.328;13.070;2022-07-06T13:20:12;0.68;;;0.57;;
12814;SDS011;6472;52.328;13.070;2022-07-06T13:22:43;2.67;;;0.30;;
12814;SDS011;6472;52.328;13.070;2022-07-06T13:25:12;0.32;;;0.32;;
12814;SDS011;6472;52.328;13.070;2022-07-06T13:27:42;1.13;;;0.50;;
12814;SDS011;6472;52.328;13.070;2022-07-06T13:30:11;0.75;;;0.30;;
12814;SDS011;6472;52.328;13.070;2022-07-06T13:32:40;1.15;;;0.38;;
12814;SDS011;6472;52.328;13.070;2022-07-06T13:35:08;0.80;;;0.30;;
12814;SDS011;6472;52.328;13.070;2022-07-06T13:37:37;1.52;;;0.40;;
12814;SDS011;6472;52.328;13.070;2022-07-06T13:40:06;0.30;;;0.30;;
12814;SDS011;6472;52.328;13.070;2022-07-06T13:42:35;0.57;;;0.47;;
12814;SDS011;6472;52.328;13.070;2022-07-06T13:45:05;0.40;;;0.40;;
12814;SDS011;6472;52.328;13.070;2022-07-06T13:47:34;0.40;;;0.40;;
12814;SDS011;6472;52.328;13.070;2022-07-06T13:50:02;2.30;;;0.55;;
12814;SDS011;6472;52.328;13.070;2022-07-06T13:52:31;0.32;;;0.32;;
12814;SDS011;6472;52.328;13.070;2022-07-06T13:55:00;0.98;;;0.77;;
12814;SDS011;6472;52.328;13.070;2022-07-06T13:57:29;0.93;;;0.43;;
12814;SDS011;6472;52.328;13.070;2022-07-06T13:59:57;0.40;;;0.40;;
12814;SDS011;6472;52.328;13.070;2022-07-06T14:02:27;1.00;;;0.50;;
12814;SDS011;6472;52.328;13.070;2022-07-06T14:04:56;3.03;;;0.50;;
12814;SDS011;6472;52.328;13.070;2022-07-06T14:07:25;1.58;;;0.50;;
12814;SDS011;6472;52.328;13.070;2022-07-06T14:09:53;0.50;;;0.47;;
12814;SDS011;6472;52.328;13.070;2022-07-06T14:12:21;0.45;;;0.43;;
12814;SDS011;6472;52.328;13.070;2022-07-06T14:14:51;0.65;;;0.30;;
12814;SDS011;6472;52.328;13.070;2022-07-06T14:17:19;1.02;;;0.55;;
12814;SDS011;6472;52.328;13.070;2022-07-06T14:19:49;1.02;;;0.50;;
12814;SDS011;6472;52.328;13.070;2022-07-06T14:22:17;2.92;;;0.60;;
12814;SDS011;6472;52.328;13.070;2022-07-06T14:24:46;0.20;;;0.20;;
12814;SDS011;6472;52.328;13.070;2022-07-06T14:27:14;0.50;;;0.40;;
12814;SDS011;6472;52.328;13.070;2022-07-06T14:29:43;0.40;;;0.40;;
12814;SDS011;6472;52.328;13.070;2022-07-06T14:32:11;1.70;;;0.40;;
12814;SDS011;6472;52.328;13.070;2022-07-06T14:34:40;0.38;;;0.38;;
12814;SDS011;6472;52.328;13.070;2022-07-06T14:37:10;2.97;;;0.80;;
12814;SDS011;6472;52.328;13.070;2022-07-06T14:39:45;0.88;;;0.43;;
12814;SDS011;6472;52.328;13.070;2022-07-06T14:42:15;0.65;;;0.50;;
12814;SDS011;6472;52.328;13.070;2022-07-06T14:44:43;0.22;;;0.22;;
12814;SDS011;6472;52.328;13.070;2022-07-06T14:47:12;1.15;;;0.35;;
12814;SDS011;6472;52.328;13.070;2022-07-06T14:49:40;1.00;;;0.40;;
12814;SDS011;6472;52.328;13.070;2022-07-06T14:52:10;0.38;;;0.38;;
12814;SDS011;6472;52.328;13.070;2022-07-06T14:54:39;0.22;;;0.20;;
12814;SDS011;6472;52.328;13.070;2022-07-06T14:57:07;0.40;;;0.40;;
12814;SDS011;6472;52.328;13.070;2022-07-06T14:59:36;1.40;;;0.50;;
12814;SDS011;6472;52.328;13.070;2022-07-06T15:02:04;2.45;;;0.75;;
12814;SDS011;6472;52.328;13.070;2022-07-06T15:04:33;0.30;;;0.30;;
12814;SDS011;6472;52.328;13.070;2022-07-06T15:07:01;0.40;;;0.40;;